GQPA

Atar International Airport

Atar, Mauritania
METAR GQPA 211800Z 35008KT 300V070 7000 NSC 33/08 Q1011
Observed Flight Rules
Apr-21 @ 18:00 UTC (5 hours ago) Marginal Visual Flight Rules
Wind Visibility Clouds
350° at 8 knots 7,001 meters
  • Clear skies
Temperatures Readings
Current 33°C / 91°F
Dewpoint 8°C / 46°F
Humidity 21%
Altimeter 29.85" Hg
Pressure 1011 hPa
Elevation 224
METAR GQPA 211800Z 35008KT 300V070 7000 NSC 33/08 Q1011
Observed Flight Rules
Apr-21 @ 18:00 UTC
(5 hours ago)
MVFR
Wind Visibility
350° at 8 knots 7,001 meters
Clouds
  • Clear skies
Temperature Dewpoint
33°C / 91°F 8°C / 46°F
Humidity Altimeter Pressure
21% 29.85" Hg 1011 hPa